Terminal Aerodrome Forecast
Issued by NWS Wilmington, OH

Current Version | Previous Version | Text Only | Print | Product List | Glossary Off
Versions: 1 2 3 4 5 6 7 8 9 10 11 12 13 14

257
FTUS41 KILN 221316 AAA
TAFDAY
TAF AMD
KDAY 221316Z 2213/2312 04014G22KT P6SM SCT030 OVC100
     FM221600 04012G18KT P6SM BKN080
     FM230400 04012KT P6SM SCT200=

USA.gov is the U.S. government's official web portal to all federal, state and local government web resources and services.